sensor_id;sensor_type;location;lat;lon;timestamp;P1;durP1;ratioP1;P2;durP2;ratioP2
69594;SDS011;56800;52.142;5.364;2022-12-11T00:00:49;107.67;;;23.20;;
69594;SDS011;56800;52.142;5.364;2022-12-11T00:03:17;169.90;;;25.17;;
69594;SDS011;56800;52.142;5.364;2022-12-11T00:05:44;106.68;;;23.98;;
69594;SDS011;56800;52.142;5.364;2022-12-11T00:08:12;110.03;;;23.77;;
69594;SDS011;56800;52.142;5.364;2022-12-11T00:10:39;105.75;;;24.38;;
69594;SDS011;56800;52.142;5.364;2022-12-11T00:13:13;127.70;;;24.33;;
69594;SDS011;56800;52.142;5.364;2022-12-11T00:15:40;129.68;;;24.23;;
69594;SDS011;56800;52.142;5.364;2022-12-11T00:18:07;136.23;;;24.10;;
69594;SDS011;56800;52.142;5.364;2022-12-11T00:20:39;121.32;;;25.23;;
69594;SDS011;56800;52.142;5.364;2022-12-11T00:23:06;100.47;;;24.08;;
69594;SDS011;56800;52.142;5.364;2022-12-11T00:25:33;100.07;;;23.37;;
69594;SDS011;56800;52.142;5.364;2022-12-11T00:28:00;93.95;;;23.63;;
69594;SDS011;56800;52.142;5.364;2022-12-11T00:30:31;106.82;;;23.67;;
69594;SDS011;56800;52.142;5.364;2022-12-11T00:32:58;92.90;;;22.25;;
69594;SDS011;56800;52.142;5.364;2022-12-11T00:35:26;107.70;;;23.23;;
69594;SDS011;56800;52.142;5.364;2022-12-11T00:37:54;95.03;;;23.63;;
69594;SDS011;56800;52.142;5.364;2022-12-11T00:40:21;86.55;;;23.38;;
69594;SDS011;56800;52.142;5.364;2022-12-11T00:42:47;91.13;;;22.95;;
69594;SDS011;56800;52.142;5.364;2022-12-11T00:45:18;93.10;;;24.15;;
69594;SDS011;56800;52.142;5.364;2022-12-11T00:47:46;91.28;;;22.90;;
69594;SDS011;56800;52.142;5.364;2022-12-11T00:50:13;89.33;;;21.97;;
69594;SDS011;56800;52.142;5.364;2022-12-11T00:52:39;110.35;;;24.40;;
69594;SDS011;56800;52.142;5.364;2022-12-11T00:55:06;108.35;;;25.33;;
69594;SDS011;56800;52.142;5.364;2022-12-11T00:57:35;107.43;;;24.73;;
69594;SDS011;56800;52.142;5.364;2022-12-11T01:00:22;108.47;;;23.58;;
69594;SDS011;56800;52.142;5.364;2022-12-11T01:03:18;112.20;;;25.00;;
69594;SDS011;56800;52.142;5.364;2022-12-11T01:05:55;98.88;;;23.63;;
69594;SDS011;56800;52.142;5.364;2022-12-11T01:08:43;114.93;;;24.58;;
69594;SDS011;56800;52.142;5.364;2022-12-11T01:11:25;110.40;;;25.13;;
69594;SDS011;56800;52.142;5.364;2022-12-11T01:13:52;104.68;;;23.70;;
69594;SDS011;56800;52.142;5.364;2022-12-11T01:16:20;116.27;;;25.30;;
69594;SDS011;56800;52.142;5.364;2022-12-11T01:18:48;124.53;;;25.77;;
69594;SDS011;56800;52.142;5.364;2022-12-11T01:21:21;151.48;;;26.75;;
69594;SDS011;56800;52.142;5.364;2022-12-11T01:23:48;129.68;;;28.05;;
69594;SDS011;56800;52.142;5.364;2022-12-11T01:26:16;236.40;;;29.90;;
69594;SDS011;56800;52.142;5.364;2022-12-11T01:28:44;120.60;;;27.30;;
69594;SDS011;56800;52.142;5.364;2022-12-11T01:31:15;125.35;;;26.20;;
69594;SDS011;56800;52.142;5.364;2022-12-11T01:33:43;129.98;;;26.75;;
69594;SDS011;56800;52.142;5.364;2022-12-11T01:36:12;208.63;;;27.75;;
69594;SDS011;56800;52.142;5.364;2022-12-11T01:38:41;146.95;;;26.88;;
69594;SDS011;56800;52.142;5.364;2022-12-11T01:41:09;169.30;;;26.07;;
69594;SDS011;56800;52.142;5.364;2022-12-11T01:46:33;169.20;;;27.45;;
69594;SDS011;56800;52.142;5.364;2022-12-11T01:49:01;156.70;;;25.73;;
69594;SDS011;56800;52.142;5.364;2022-12-11T01:51:31;171.88;;;28.05;;
69594;SDS011;56800;52.142;5.364;2022-12-11T01:54:02;209.17;;;27.23;;
69594;SDS011;56800;52.142;5.364;2022-12-11T01:56:32;141.77;;;26.05;;
69594;SDS011;56800;52.142;5.364;2022-12-11T01:59:02;129.40;;;27.25;;
69594;SDS011;56800;52.142;5.364;2022-12-11T02:01:39;214.45;;;28.52;;
69594;SDS011;56800;52.142;5.364;2022-12-11T02:04:09;107.15;;;25.67;;
69594;SDS011;56800;52.142;5.364;2022-12-11T02:06:38;318.57;;;28.83;;
69594;SDS011;56800;52.142;5.364;2022-12-11T02:09:11;162.65;;;28.00;;
69594;SDS011;56800;52.142;5.364;2022-12-11T02:19:52;107.03;;;26.97;;
69594;SDS011;56800;52.142;5.364;2022-12-11T02:22:36;96.30;;;26.00;;
69594;SDS011;56800;52.142;5.364;2022-12-11T02:27:53;87.43;;;24.55;;
69594;SDS011;56800;52.142;5.364;2022-12-11T02:30:39;87.88;;;25.67;;
69594;SDS011;56800;52.142;5.364;2022-12-11T02:33:10;97.37;;;26.73;;
69594;SDS011;56800;52.142;5.364;2022-12-11T02:35:39;91.15;;;26.83;;
69594;SDS011;56800;52.142;5.364;2022-12-11T02:38:14;90.90;;;26.10;;
69594;SDS011;56800;52.142;5.364;2022-12-11T02:40:44;104.10;;;26.40;;
69594;SDS011;56800;52.142;5.364;2022-12-11T02:43:15;87.25;;;25.50;;
69594;SDS011;56800;52.142;5.364;2022-12-11T02:45:43;90.57;;;27.37;;
69594;SDS011;56800;52.142;5.364;2022-12-11T02:48:12;83.35;;;25.45;;
69594;SDS011;56800;52.142;5.364;2022-12-11T02:50:41;87.15;;;26.52;;
69594;SDS011;56800;52.142;5.364;2022-12-11T02:53:11;85.13;;;26.00;;
69594;SDS011;56800;52.142;5.364;2022-12-11T02:55:41;72.55;;;24.38;;
69594;SDS011;56800;52.142;5.364;2022-12-11T02:58:18;91.30;;;26.17;;
69594;SDS011;56800;52.142;5.364;2022-12-11T03:00:48;85.88;;;26.40;;
69594;SDS011;56800;52.142;5.364;2022-12-11T03:03:15;70.35;;;23.77;;
69594;SDS011;56800;52.142;5.364;2022-12-11T03:05:42;73.15;;;26.15;;
69594;SDS011;56800;52.142;5.364;2022-12-11T03:08:11;79.25;;;24.98;;
69594;SDS011;56800;52.142;5.364;2022-12-11T03:10:44;69.00;;;24.30;;
69594;SDS011;56800;52.142;5.364;2022-12-11T03:13:11;73.75;;;24.38;;
69594;SDS011;56800;52.142;5.364;2022-12-11T03:18:16;77.20;;;23.75;;
69594;SDS011;56800;52.142;5.364;2022-12-11T03:20:58;71.43;;;23.30;;
69594;SDS011;56800;52.142;5.364;2022-12-11T03:23:47;69.90;;;25.17;;
69594;SDS011;56800;52.142;5.364;2022-12-11T03:26:19;65.43;;;24.15;;
69594;SDS011;56800;52.142;5.364;2022-12-11T03:28:57;69.60;;;24.25;;
69594;SDS011;56800;52.142;5.364;2022-12-11T03:34:10;60.75;;;23.10;;
69594;SDS011;56800;52.142;5.364;2022-12-11T03:36:44;64.67;;;24.37;;
69594;SDS011;56800;52.142;5.364;2022-12-11T03:39:18;65.90;;;24.55;;
69594;SDS011;56800;52.142;5.364;2022-12-11T03:41:52;63.53;;;24.50;;
69594;SDS011;56800;52.142;5.364;2022-12-11T03:44:20;61.88;;;24.75;;
69594;SDS011;56800;52.142;5.364;2022-12-11T03:46:49;58.88;;;25.02;;
69594;SDS011;56800;52.142;5.364;2022-12-11T03:49:21;61.07;;;22.77;;
69594;SDS011;56800;52.142;5.364;2022-12-11T03:51:57;60.00;;;24.50;;
69594;SDS011;56800;52.142;5.364;2022-12-11T03:54:34;60.78;;;24.27;;
69594;SDS011;56800;52.142;5.364;2022-12-11T03:57:04;64.47;;;24.83;;
69594;SDS011;56800;52.142;5.364;2022-12-11T03:59:48;56.42;;;23.92;;
69594;SDS011;56800;52.142;5.364;2022-12-11T04:02:18;52.47;;;23.77;;
69594;SDS011;56800;52.142;5.364;2022-12-11T04:04:51;50.80;;;23.13;;
69594;SDS011;56800;52.142;5.364;2022-12-11T04:07:18;53.83;;;24.17;;
69594;SDS011;56800;52.142;5.364;2022-12-11T04:10:20;54.88;;;23.65;;
69594;SDS011;56800;52.142;5.364;2022-12-11T04:12:52;47.83;;;22.15;;
69594;SDS011;56800;52.142;5.364;2022-12-11T04:15:22;59.03;;;22.33;;
69594;SDS011;56800;52.142;5.364;2022-12-11T04:17:50;54.80;;;22.58;;
69594;SDS011;56800;52.142;5.364;2022-12-11T04:20:38;55.88;;;23.88;;
69594;SDS011;56800;52.142;5.364;2022-12-11T04:23:25;53.92;;;24.23;;
69594;SDS011;56800;52.142;5.364;2022-12-11T04:26:15;43.90;;;20.83;;
69594;SDS011;56800;52.142;5.364;2022-12-11T04:29:03;48.07;;;20.50;;
69594;SDS011;56800;52.142;5.364;2022-12-11T04:31:50;53.53;;;22.77;;
69594;SDS011;56800;52.142;5.364;2022-12-11T04:34:38;54.60;;;21.67;;
69594;SDS011;56800;52.142;5.364;2022-12-11T04:37:10;51.03;;;22.45;;
69594;SDS011;56800;52.142;5.364;2022-12-11T04:39:39;45.35;;;21.85;;
69594;SDS011;56800;52.142;5.364;2022-12-11T04:42:07;47.43;;;22.50;;
69594;SDS011;56800;52.142;5.364;2022-12-11T04:44:49;47.38;;;21.00;;
69594;SDS011;56800;52.142;5.364;2022-12-11T04:47:36;46.42;;;20.80;;
69594;SDS011;56800;52.142;5.364;2022-12-11T04:50:13;45.80;;;21.08;;
69594;SDS011;56800;52.142;5.364;2022-12-11T04:53:11;47.90;;;20.15;;
69594;SDS011;56800;52.142;5.364;2022-12-11T04:55:47;46.53;;;21.27;;
69594;SDS011;56800;52.142;5.364;2022-12-11T04:58:18;46.80;;;20.98;;
69594;SDS011;56800;52.142;5.364;2022-12-11T05:01:40;41.92;;;21.15;;
69594;SDS011;56800;52.142;5.364;2022-12-11T05:04:08;45.30;;;21.38;;
69594;SDS011;56800;52.142;5.364;2022-12-11T05:14:37;40.90;;;19.50;;
69594;SDS011;56800;52.142;5.364;2022-12-11T05:17:32;44.22;;;19.77;;
69594;SDS011;56800;52.142;5.364;2022-12-11T05:20:00;39.25;;;18.70;;
69594;SDS011;56800;52.142;5.364;2022-12-11T05:22:30;40.40;;;19.40;;
69594;SDS011;56800;52.142;5.364;2022-12-11T05:25:12;43.77;;;19.73;;
69594;SDS011;56800;52.142;5.364;2022-12-11T05:27:49;40.35;;;20.38;;
69594;SDS011;56800;52.142;5.364;2022-12-11T05:30:39;38.08;;;20.05;;
69594;SDS011;56800;52.142;5.364;2022-12-11T05:33:12;42.38;;;18.88;;
69594;SDS011;56800;52.142;5.364;2022-12-11T05:35:46;40.95;;;18.92;;
69594;SDS011;56800;52.142;5.364;2022-12-11T05:38:36;46.37;;;20.13;;
69594;SDS011;56800;52.142;5.364;2022-12-11T05:41:31;38.28;;;18.90;;
69594;SDS011;56800;52.142;5.364;2022-12-11T05:44:24;43.42;;;19.15;;
69594;SDS011;56800;52.142;5.364;2022-12-11T05:46:52;42.38;;;20.08;;
69594;SDS011;56800;52.142;5.364;2022-12-11T05:49:18;43.15;;;18.90;;
69594;SDS011;56800;52.142;5.364;2022-12-11T05:51:52;39.33;;;19.03;;
69594;SDS011;56800;52.142;5.364;2022-12-11T05:54:19;40.22;;;18.92;;
69594;SDS011;56800;52.142;5.364;2022-12-11T05:56:45;37.58;;;17.58;;
69594;SDS011;56800;52.142;5.364;2022-12-11T05:59:15;38.20;;;18.75;;
69594;SDS011;56800;52.142;5.364;2022-12-11T06:01:43;38.58;;;18.60;;
69594;SDS011;56800;52.142;5.364;2022-12-11T06:04:11;36.83;;;18.97;;
69594;SDS011;56800;52.142;5.364;2022-12-11T06:06:38;37.47;;;16.75;;
69594;SDS011;56800;52.142;5.364;2022-12-11T06:09:05;36.25;;;18.50;;
69594;SDS011;56800;52.142;5.364;2022-12-11T06:11:32;38.00;;;17.67;;
69594;SDS011;56800;52.142;5.364;2022-12-11T06:14:01;37.92;;;18.13;;
69594;SDS011;56800;52.142;5.364;2022-12-11T06:16:28;36.93;;;18.70;;
69594;SDS011;56800;52.142;5.364;2022-12-11T06:18:55;40.45;;;17.80;;
69594;SDS011;56800;52.142;5.364;2022-12-11T06:21:25;40.33;;;18.88;;
69594;SDS011;56800;52.142;5.364;2022-12-11T06:23:53;41.03;;;18.40;;
69594;SDS011;56800;52.142;5.364;2022-12-11T06:26:21;35.03;;;17.80;;
69594;SDS011;56800;52.142;5.364;2022-12-11T06:28:49;35.27;;;17.40;;
69594;SDS011;56800;52.142;5.364;2022-12-11T06:31:16;40.03;;;18.23;;
69594;SDS011;56800;52.142;5.364;2022-12-11T06:33:43;37.45;;;18.77;;
69594;SDS011;56800;52.142;5.364;2022-12-11T06:36:11;40.05;;;17.65;;
69594;SDS011;56800;52.142;5.364;2022-12-11T06:38:40;39.45;;;18.83;;
69594;SDS011;56800;52.142;5.364;2022-12-11T06:41:07;39.67;;;18.67;;
69594;SDS011;56800;52.142;5.364;2022-12-11T06:43:35;40.20;;;19.17;;
69594;SDS011;56800;52.142;5.364;2022-12-11T06:46:03;38.45;;;18.52;;
69594;SDS011;56800;52.142;5.364;2022-12-11T06:48:31;42.75;;;19.23;;
69594;SDS011;56800;52.142;5.364;2022-12-11T06:50:58;41.63;;;18.85;;
69594;SDS011;56800;52.142;5.364;2022-12-11T06:53:25;43.13;;;19.37;;
69594;SDS011;56800;52.142;5.364;2022-12-11T06:55:51;39.03;;;17.60;;
69594;SDS011;56800;52.142;5.364;2022-12-11T06:58:18;38.83;;;18.27;;
69594;SDS011;56800;52.142;5.364;2022-12-11T07:00:44;39.03;;;17.63;;
69594;SDS011;56800;52.142;5.364;2022-12-11T07:03:11;40.78;;;19.98;;
69594;SDS011;56800;52.142;5.364;2022-12-11T07:05:38;40.33;;;18.90;;
69594;SDS011;56800;52.142;5.364;2022-12-11T07:08:05;39.80;;;19.20;;
69594;SDS011;56800;52.142;5.364;2022-12-11T07:10:32;42.83;;;19.10;;
69594;SDS011;56800;52.142;5.364;2022-12-11T07:12:59;39.92;;;19.83;;
69594;SDS011;56800;52.142;5.364;2022-12-11T07:15:25;43.67;;;19.92;;
69594;SDS011;56800;52.142;5.364;2022-12-11T07:17:52;41.83;;;19.80;;
69594;SDS011;56800;52.142;5.364;2022-12-11T07:20:19;43.22;;;20.48;;
69594;SDS011;56800;52.142;5.364;2022-12-11T07:22:47;40.22;;;19.45;;
69594;SDS011;56800;52.142;5.364;2022-12-11T07:25:19;44.22;;;20.20;;
69594;SDS011;56800;52.142;5.364;2022-12-11T07:27:46;42.88;;;18.67;;
69594;SDS011;56800;52.142;5.364;2022-12-11T07:30:13;44.10;;;20.30;;
69594;SDS011;56800;52.142;5.364;2022-12-11T07:32:40;42.28;;;20.77;;
69594;SDS011;56800;52.142;5.364;2022-12-11T07:35:07;45.60;;;21.00;;
69594;SDS011;56800;52.142;5.364;2022-12-11T07:37:35;44.30;;;19.67;;
69594;SDS011;56800;52.142;5.364;2022-12-11T07:40:05;41.30;;;20.67;;
69594;SDS011;56800;52.142;5.364;2022-12-11T07:42:33;44.27;;;20.83;;
69594;SDS011;56800;52.142;5.364;2022-12-11T07:44:59;46.17;;;20.63;;
69594;SDS011;56800;52.142;5.364;2022-12-11T07:47:26;45.50;;;20.60;;
69594;SDS011;56800;52.142;5.364;2022-12-11T07:49:53;44.13;;;20.02;;
69594;SDS011;56800;52.142;5.364;2022-12-11T07:52:19;44.90;;;21.80;;
69594;SDS011;56800;52.142;5.364;2022-12-11T07:54:46;43.90;;;20.53;;
69594;SDS011;56800;52.142;5.364;2022-12-11T07:57:12;45.88;;;20.33;;
69594;SDS011;56800;52.142;5.364;2022-12-11T07:59:39;43.63;;;20.98;;
69594;SDS011;56800;52.142;5.364;2022-12-11T08:02:08;41.63;;;20.27;;
69594;SDS011;56800;52.142;5.364;2022-12-11T08:04:37;43.50;;;20.60;;
69594;SDS011;56800;52.142;5.364;2022-12-11T08:07:03;43.07;;;20.63;;
69594;SDS011;56800;52.142;5.364;2022-12-11T08:09:30;43.70;;;20.67;;
69594;SDS011;56800;52.142;5.364;2022-12-11T08:11:57;44.53;;;20.33;;
69594;SDS011;56800;52.142;5.364;2022-12-11T08:14:23;43.15;;;20.80;;
69594;SDS011;56800;52.142;5.364;2022-12-11T08:16:50;46.95;;;21.77;;
69594;SDS011;56800;52.142;5.364;2022-12-11T08:19:17;42.97;;;21.20;;
69594;SDS011;56800;52.142;5.364;2022-12-11T08:21:44;46.42;;;22.35;;
69594;SDS011;56800;52.142;5.364;2022-12-11T08:24:10;41.78;;;21.95;;
69594;SDS011;56800;52.142;5.364;2022-12-11T08:26:37;44.78;;;22.00;;
69594;SDS011;56800;52.142;5.364;2022-12-11T08:29:04;44.83;;;22.17;;
69594;SDS011;56800;52.142;5.364;2022-12-11T08:31:31;40.60;;;21.80;;
69594;SDS011;56800;52.142;5.364;2022-12-11T08:33:58;41.45;;;21.83;;
69594;SDS011;56800;52.142;5.364;2022-12-11T08:36:25;44.15;;;21.52;;
69594;SDS011;56800;52.142;5.364;2022-12-11T08:38:53;39.65;;;21.30;;
69594;SDS011;56800;52.142;5.364;2022-12-11T08:41:22;44.30;;;22.50;;
69594;SDS011;56800;52.142;5.364;2022-12-11T08:43:53;39.20;;;21.87;;
69594;SDS011;56800;52.142;5.364;2022-12-11T08:46:22;42.20;;;21.33;;
69594;SDS011;56800;52.142;5.364;2022-12-11T08:48:51;46.38;;;22.85;;
69594;SDS011;56800;52.142;5.364;2022-12-11T08:51:19;42.67;;;21.00;;
69594;SDS011;56800;52.142;5.364;2022-12-11T08:53:48;40.55;;;21.08;;
69594;SDS011;56800;52.142;5.364;2022-12-11T08:56:17;44.30;;;21.77;;
69594;SDS011;56800;52.142;5.364;2022-12-11T08:58:45;39.25;;;21.20;;
69594;SDS011;56800;52.142;5.364;2022-12-11T09:01:14;40.13;;;20.98;;
69594;SDS011;56800;52.142;5.364;2022-12-11T09:03:43;40.60;;;20.45;;
69594;SDS011;56800;52.142;5.364;2022-12-11T09:06:11;45.78;;;21.83;;
69594;SDS011;56800;52.142;5.364;2022-12-11T09:08:40;44.90;;;20.93;;
69594;SDS011;56800;52.142;5.364;2022-12-11T09:11:21;40.05;;;20.63;;
69594;SDS011;56800;52.142;5.364;2022-12-11T09:13:49;39.78;;;21.58;;
69594;SDS011;56800;52.142;5.364;2022-12-11T09:16:17;38.65;;;20.10;;
69594;SDS011;56800;52.142;5.364;2022-12-11T09:18:46;38.80;;;20.40;;
69594;SDS011;56800;52.142;5.364;2022-12-11T09:21:14;43.57;;;21.30;;
69594;SDS011;56800;52.142;5.364;2022-12-11T09:23:42;38.42;;;21.83;;
69594;SDS011;56800;52.142;5.364;2022-12-11T09:26:10;41.55;;;21.77;;
69594;SDS011;56800;52.142;5.364;2022-12-11T09:28:39;44.20;;;22.40;;
69594;SDS011;56800;52.142;5.364;2022-12-11T09:31:13;39.03;;;20.65;;
69594;SDS011;56800;52.142;5.364;2022-12-11T09:33:42;42.50;;;20.87;;
69594;SDS011;56800;52.142;5.364;2022-12-11T09:36:09;39.97;;;21.70;;
69594;SDS011;56800;52.142;5.364;2022-12-11T09:38:37;35.85;;;20.05;;
69594;SDS011;56800;52.142;5.364;2022-12-11T09:41:15;41.33;;;21.08;;
69594;SDS011;56800;52.142;5.364;2022-12-11T09:43:51;40.40;;;20.15;;
69594;SDS011;56800;52.142;5.364;2022-12-11T09:46:24;39.97;;;20.10;;
69594;SDS011;56800;52.142;5.364;2022-12-11T09:48:59;38.85;;;21.20;;
69594;SDS011;56800;52.142;5.364;2022-12-11T09:54:01;35.70;;;18.63;;
69594;SDS011;56800;52.142;5.364;2022-12-11T09:56:33;38.72;;;19.88;;
69594;SDS011;56800;52.142;5.364;2022-12-11T10:13:05;37.67;;;19.17;;
69594;SDS011;56800;52.142;5.364;2022-12-11T10:16:10;31.67;;;18.25;;
69594;SDS011;56800;52.142;5.364;2022-12-11T10:18:57;38.30;;;18.80;;
69594;SDS011;56800;52.142;5.364;2022-12-11T10:21:24;38.38;;;18.92;;
69594;SDS011;56800;52.142;5.364;2022-12-11T10:23:57;36.10;;;18.92;;
69594;SDS011;56800;52.142;5.364;2022-12-11T10:26:27;33.93;;;17.93;;
69594;SDS011;56800;52.142;5.364;2022-12-11T10:28:58;33.72;;;17.52;;
69594;SDS011;56800;52.142;5.364;2022-12-11T10:34:25;33.92;;;17.42;;
69594;SDS011;56800;52.142;5.364;2022-12-11T10:36:59;35.70;;;17.40;;
69594;SDS011;56800;52.142;5.364;2022-12-11T10:39:26;33.63;;;17.90;;
69594;SDS011;56800;52.142;5.364;2022-12-11T10:41:54;35.63;;;18.90;;
69594;SDS011;56800;52.142;5.364;2022-12-11T10:44:25;32.10;;;17.65;;
69594;SDS011;56800;52.142;5.364;2022-12-11T10:47:00;36.72;;;18.38;;
69594;SDS011;56800;52.142;5.364;2022-12-11T10:49:35;32.10;;;17.60;;
69594;SDS011;56800;52.142;5.364;2022-12-11T10:52:10;35.00;;;17.50;;
69594;SDS011;56800;52.142;5.364;2022-12-11T10:54:44;36.30;;;17.58;;
69594;SDS011;56800;52.142;5.364;2022-12-11T10:57:24;36.45;;;18.70;;
69594;SDS011;56800;52.142;5.364;2022-12-11T10:59:56;34.97;;;18.67;;
69594;SDS011;56800;52.142;5.364;2022-12-11T11:02:25;32.88;;;17.27;;
69594;SDS011;56800;52.142;5.364;2022-12-11T11:04:58;34.20;;;17.83;;
69594;SDS011;56800;52.142;5.364;2022-12-11T11:07:27;34.70;;;17.63;;
69594;SDS011;56800;52.142;5.364;2022-12-11T11:15:12;37.10;;;18.50;;
69594;SDS011;56800;52.142;5.364;2022-12-11T11:17:52;31.17;;;17.50;;
69594;SDS011;56800;52.142;5.364;2022-12-11T11:20:25;35.42;;;17.92;;
69594;SDS011;56800;52.142;5.364;2022-12-11T11:23:07;33.45;;;17.70;;
69594;SDS011;56800;52.142;5.364;2022-12-11T11:25:43;32.70;;;16.70;;
69594;SDS011;56800;52.142;5.364;2022-12-11T11:28:17;30.90;;;16.88;;
69594;SDS011;56800;52.142;5.364;2022-12-11T11:31:01;33.33;;;16.60;;
69594;SDS011;56800;52.142;5.364;2022-12-11T11:33:35;30.77;;;17.23;;
69594;SDS011;56800;52.142;5.364;2022-12-11T11:36:18;33.58;;;17.38;;
69594;SDS011;56800;52.142;5.364;2022-12-11T11:38:52;36.40;;;18.40;;
69594;SDS011;56800;52.142;5.364;2022-12-11T11:42:29;31.63;;;16.50;;
69594;SDS011;56800;52.142;5.364;2022-12-11T11:44:41;34.27;;;16.67;;
69594;SDS011;56800;52.142;5.364;2022-12-11T11:47:18;27.05;;;15.90;;
69594;SDS011;56800;52.142;5.364;2022-12-11T11:49:54;31.92;;;15.80;;
69594;SDS011;56800;52.142;5.364;2022-12-11T11:52:36;29.30;;;16.33;;
69594;SDS011;56800;52.142;5.364;2022-12-11T11:55:20;30.63;;;15.77;;
69594;SDS011;56800;52.142;5.364;2022-12-11T12:00:44;28.08;;;14.90;;
69594;SDS011;56800;52.142;5.364;2022-12-11T12:03:12;30.80;;;15.30;;
69594;SDS011;56800;52.142;5.364;2022-12-11T12:05:47;30.20;;;15.60;;
69594;SDS011;56800;52.142;5.364;2022-12-11T12:45:16;30.80;;;14.60;;
69594;SDS011;56800;52.142;5.364;2022-12-11T12:48:06;24.75;;;13.23;;
69594;SDS011;56800;52.142;5.364;2022-12-11T12:50:39;27.80;;;14.60;;
69594;SDS011;56800;52.142;5.364;2022-12-11T12:53:13;27.73;;;14.37;;
69594;SDS011;56800;52.142;5.364;2022-12-11T12:55:45;27.45;;;14.50;;
69594;SDS011;56800;52.142;5.364;2022-12-11T13:00:58;31.55;;;14.82;;
69594;SDS011;56800;52.142;5.364;2022-12-11T13:03:48;31.13;;;15.38;;
69594;SDS011;56800;52.142;5.364;2022-12-11T13:06:27;33.57;;;16.60;;
69594;SDS011;56800;52.142;5.364;2022-12-11T13:08:54;33.78;;;15.75;;
69594;SDS011;56800;52.142;5.364;2022-12-11T13:11:29;32.08;;;15.88;;
69594;SDS011;56800;52.142;5.364;2022-12-11T13:14:04;28.67;;;14.30;;
69594;SDS011;56800;52.142;5.364;2022-12-11T13:16:47;30.95;;;14.88;;
69594;SDS011;56800;52.142;5.364;2022-12-11T13:22:31;31.75;;;15.40;;
69594;SDS011;56800;52.142;5.364;2022-12-11T13:27:23;33.63;;;16.10;;
69594;SDS011;56800;52.142;5.364;2022-12-11T13:30:33;34.40;;;16.20;;
69594;SDS011;56800;52.142;5.364;2022-12-11T13:35:29;31.70;;;15.57;;
69594;SDS011;56800;52.142;5.364;2022-12-11T13:38:02;34.03;;;15.77;;
69594;SDS011;56800;52.142;5.364;2022-12-11T13:40:35;33.80;;;16.30;;
69594;SDS011;56800;52.142;5.364;2022-12-11T13:43:20;35.65;;;15.57;;
69594;SDS011;56800;52.142;5.364;2022-12-11T13:45:50;35.53;;;15.97;;
69594;SDS011;56800;52.142;5.364;2022-12-11T13:50:59;39.60;;;16.52;;
69594;SDS011;56800;52.142;5.364;2022-12-11T13:53:27;35.53;;;17.38;;
69594;SDS011;56800;52.142;5.364;2022-12-11T13:56:15;35.30;;;17.02;;
69594;SDS011;56800;52.142;5.364;2022-12-11T13:58:44;30.50;;;15.80;;
69594;SDS011;56800;52.142;5.364;2022-12-11T14:01:20;38.95;;;17.50;;
69594;SDS011;56800;52.142;5.364;2022-12-11T14:03:54;37.33;;;16.30;;
69594;SDS011;56800;52.142;5.364;2022-12-11T14:06:33;36.72;;;16.50;;
69594;SDS011;56800;52.142;5.364;2022-12-11T14:09:02;35.67;;;17.15;;
69594;SDS011;56800;52.142;5.364;2022-12-11T14:11:33;36.43;;;16.90;;
69594;SDS011;56800;52.142;5.364;2022-12-11T14:14:03;36.70;;;16.58;;
69594;SDS011;56800;52.142;5.364;2022-12-11T14:16:33;35.65;;;16.70;;
69594;SDS011;56800;52.142;5.364;2022-12-11T14:19:06;38.35;;;16.98;;
69594;SDS011;56800;52.142;5.364;2022-12-11T14:21:35;36.08;;;17.27;;
69594;SDS011;56800;52.142;5.364;2022-12-11T14:24:02;36.97;;;17.70;;
69594;SDS011;56800;52.142;5.364;2022-12-11T14:26:32;35.67;;;17.83;;
69594;SDS011;56800;52.142;5.364;2022-12-11T14:29:00;35.80;;;17.05;;
69594;SDS011;56800;52.142;5.364;2022-12-11T14:31:41;40.13;;;18.08;;
69594;SDS011;56800;52.142;5.364;2022-12-11T14:34:13;42.42;;;18.20;;
69594;SDS011;56800;52.142;5.364;2022-12-11T14:36:43;40.03;;;18.27;;
69594;SDS011;56800;52.142;5.364;2022-12-11T14:39:16;41.72;;;18.35;;
69594;SDS011;56800;52.142;5.364;2022-12-11T14:42:00;37.88;;;17.88;;
69594;SDS011;56800;52.142;5.364;2022-12-11T14:44:34;36.08;;;17.33;;
69594;SDS011;56800;52.142;5.364;2022-12-11T14:47:14;34.08;;;16.17;;
69594;SDS011;56800;52.142;5.364;2022-12-11T14:49:58;38.07;;;17.23;;
69594;SDS011;56800;52.142;5.364;2022-12-11T14:52:30;40.25;;;17.95;;
69594;SDS011;56800;52.142;5.364;2022-12-11T14:55:23;37.83;;;17.38;;
69594;SDS011;56800;52.142;5.364;2022-12-11T14:57:51;38.65;;;18.83;;
69594;SDS011;56800;52.142;5.364;2022-12-11T15:03:02;37.73;;;18.57;;
69594;SDS011;56800;52.142;5.364;2022-12-11T15:05:51;40.97;;;18.08;;
69594;SDS011;56800;52.142;5.364;2022-12-11T15:11:01;38.38;;;17.77;;
69594;SDS011;56800;52.142;5.364;2022-12-11T15:13:30;37.13;;;17.73;;
69594;SDS011;56800;52.142;5.364;2022-12-11T15:15:58;40.43;;;18.27;;
69594;SDS011;56800;52.142;5.364;2022-12-11T15:18:29;40.17;;;18.77;;
69594;SDS011;56800;52.142;5.364;2022-12-11T15:21:00;43.55;;;18.40;;
69594;SDS011;56800;52.142;5.364;2022-12-11T15:23:31;39.80;;;18.35;;
69594;SDS011;56800;52.142;5.364;2022-12-11T15:26:03;37.92;;;17.90;;
69594;SDS011;56800;52.142;5.364;2022-12-11T15:28:31;41.70;;;18.90;;
69594;SDS011;56800;52.142;5.364;2022-12-11T15:31:01;35.53;;;17.13;;
69594;SDS011;56800;52.142;5.364;2022-12-11T15:33:43;41.38;;;18.00;;
69594;SDS011;56800;52.142;5.364;2022-12-11T15:36:20;42.22;;;17.63;;
69594;SDS011;56800;52.142;5.364;2022-12-11T15:38:51;36.38;;;18.38;;
69594;SDS011;56800;52.142;5.364;2022-12-11T15:41:18;36.40;;;17.57;;
69594;SDS011;56800;52.142;5.364;2022-12-11T15:43:46;39.17;;;18.25;;
69594;SDS011;56800;52.142;5.364;2022-12-11T15:46:13;39.88;;;18.20;;
69594;SDS011;56800;52.142;5.364;2022-12-11T15:48:40;39.78;;;17.48;;
69594;SDS011;56800;52.142;5.364;2022-12-11T15:51:07;42.40;;;18.35;;
69594;SDS011;56800;52.142;5.364;2022-12-11T15:53:35;44.47;;;18.07;;
69594;SDS011;56800;52.142;5.364;2022-12-11T15:56:02;43.17;;;17.95;;
69594;SDS011;56800;52.142;5.364;2022-12-11T15:58:29;44.78;;;18.48;;
69594;SDS011;56800;52.142;5.364;2022-12-11T16:00:55;37.65;;;16.58;;
69594;SDS011;56800;52.142;5.364;2022-12-11T16:03:22;37.60;;;17.27;;
69594;SDS011;56800;52.142;5.364;2022-12-11T16:05:50;39.27;;;18.03;;
69594;SDS011;56800;52.142;5.364;2022-12-11T16:08:19;37.33;;;16.83;;
69594;SDS011;56800;52.142;5.364;2022-12-11T16:10:47;39.58;;;17.17;;
69594;SDS011;56800;52.142;5.364;2022-12-11T16:13:16;40.35;;;18.00;;
69594;SDS011;56800;52.142;5.364;2022-12-11T16:15:43;38.78;;;18.13;;
69594;SDS011;56800;52.142;5.364;2022-12-11T16:18:13;39.93;;;19.20;;
69594;SDS011;56800;52.142;5.364;2022-12-11T16:20:47;43.55;;;19.38;;
69594;SDS011;56800;52.142;5.364;2022-12-11T16:23:15;36.10;;;17.27;;
69594;SDS011;56800;52.142;5.364;2022-12-11T16:25:42;45.08;;;18.25;;
69594;SDS011;56800;52.142;5.364;2022-12-11T16:28:11;38.00;;;17.67;;
69594;SDS011;56800;52.142;5.364;2022-12-11T16:30:39;42.17;;;17.70;;
69594;SDS011;56800;52.142;5.364;2022-12-11T16:33:06;36.85;;;17.92;;
69594;SDS011;56800;52.142;5.364;2022-12-11T16:35:38;39.95;;;17.90;;
69594;SDS011;56800;52.142;5.364;2022-12-11T16:38:06;34.95;;;16.20;;
69594;SDS011;56800;52.142;5.364;2022-12-11T16:40:33;38.22;;;18.08;;